PWSweather.com
Personal Weather Stations
Station Observations
UPSTATEWEATHER
Silver Leaf, Greer, SC 29650

Silver LeafGreer, SC 29650

Lat: 34.8955792, Lon: -82.2868211

Elevation: 875

Station Type: Davis Vantage Vue

https://www.upstateweather.com

High Low Average
Temperature 89.5°F31.9°C 69.4°F20.8°C 78.1°F25.6°C
Dew Point 77.3°F25.2°C 67.4°F19.7°C 70.9°F21.6°C
Winds 1.2 mph 1.9 kmh Calm Calm Calm NCalm N
Wind Gusts 3.5 mph5.6 kmh -- --
Humidity 94% 57% 79%
Pressure 30.27 in1025.1 mb 30.17 in1021.7 mb -
Precipitation 0.00 in0.0 mm - -
Hour Temp Dew Point Humidity Winds Wind Gusts Pressure Precip Precip Rate Daily Precip Total
12:00 AM 73.4°F23.0°C 69.0°F20.6°C 86% Calm Calm -- 30.17 in1021.7 mb - 0.00 in0.0 mm 0.00 in0.0 mm
12:15 AM 73.2°F22.9°C 68.8°F20.4°C 86% Calm Calm -- 30.17 in1021.7 mb - 0.00 in0.0 mm 0.00 in0.0 mm
12:30 AM 73.0°F22.8°C 68.6°F20.3°C 86% Calm Calm -- 30.18 in1022.0 mb - 0.00 in0.0 mm 0.00 in0.0 mm
12:45 AM 72.9°F22.7°C 68.8°F20.4°C 87% Calm Calm -- 30.18 in1022.0 mb - 0.00 in0.0 mm 0.00 in0.0 mm
01:00 AM 72.7°F22.6°C 68.6°F20.3°C 87% Calm Calm -- 30.18 in1022.0 mb - 0.00 in0.0 mm 0.00 in0.0 mm
01:15 AM 72.4°F22.4°C 68.7°F20.4°C 88% Calm Calm -- 30.18 in1022.0 mb - 0.00 in0.0 mm 0.00 in0.0 mm
01:30 AM 72.2°F22.3°C 68.4°F20.2°C 88% Calm Calm -- 30.18 in1022.0 mb - 0.00 in0.0 mm 0.00 in0.0 mm
01:45 AM 72.0°F22.2°C 68.2°F20.1°C 88% Calm Calm -- 30.18 in1022.0 mb - 0.00 in0.0 mm 0.00 in0.0 mm
02:00 AM 71.7°F22.1°C 68.3°F20.2°C 89% Calm Calm -- 30.18 in1022.0 mb - 0.00 in0.0 mm 0.00 in0.0 mm
02:15 AM 71.4°F21.9°C 68.3°F20.2°C 90% Calm Calm -- 30.18 in1022.0 mb - 0.00 in0.0 mm 0.00 in0.0 mm
02:30 AM 71.4°F21.9°C 68.3°F20.2°C 90% Calm Calm -- 30.18 in1022.0 mb - 0.00 in0.0 mm 0.00 in0.0 mm
02:45 AM 71.3°F21.8°C 68.2°F20.1°C 90% Calm Calm -- 30.18 in1022.0 mb - 0.00 in0.0 mm 0.00 in0.0 mm
03:00 AM 71.3°F21.8°C 68.2°F20.1°C 90% Calm Calm -- 30.18 in1022.0 mb - 0.00 in0.0 mm 0.00 in0.0 mm
03:15 AM 71.0°F21.7°C 68.3°F20.2°C 91% Calm Calm -- 30.18 in1022.0 mb - 0.00 in0.0 mm 0.00 in0.0 mm
03:30 AM 70.6°F21.4°C 67.9°F19.9°C 91% Calm Calm -- 30.19 in1022.4 mb - 0.00 in0.0 mm 0.00 in0.0 mm
03:45 AM 70.4°F21.3°C 68.0°F20.0°C 92% Calm Calm -- 30.18 in1022.0 mb - 0.00 in0.0 mm 0.00 in0.0 mm
04:00 AM 70.5°F21.4°C 68.1°F20.1°C 92% Calm Calm -- 30.18 in1022.0 mb - 0.00 in0.0 mm 0.00 in0.0 mm
04:15 AM 70.3°F21.3°C 67.9°F19.9°C 92% Calm Calm -- 30.18 in1022.0 mb - 0.00 in0.0 mm 0.00 in0.0 mm
04:30 AM 70.1°F21.2°C 67.6°F19.8°C 92% Calm Calm -- 30.19 in1022.4 mb - 0.00 in0.0 mm 0.00 in0.0 mm
04:45 AM 69.8°F21.0°C 67.7°F19.8°C 93% Calm Calm -- 30.19 in1022.4 mb - 0.00 in0.0 mm 0.00 in0.0 mm
05:00 AM 69.7°F20.9°C 67.6°F19.8°C 93% Calm Calm -- 30.20 in1022.7 mb - 0.00 in0.0 mm 0.00 in0.0 mm
05:15 AM 69.5°F20.8°C 67.4°F19.7°C 93% Calm Calm -- 30.21 in1023.0 mb - 0.00 in0.0 mm 0.00 in0.0 mm
05:30 AM 69.4°F20.8°C 67.6°F19.8°C 94% Calm Calm -- 30.21 in1023.0 mb - 0.00 in0.0 mm 0.00 in0.0 mm
05:45 AM 69.5°F20.8°C 67.7°F19.8°C 94% Calm Calm -- 30.21 in1023.0 mb - 0.00 in0.0 mm 0.00 in0.0 mm
06:00 AM 69.7°F20.9°C 67.5°F19.7°C 93% Calm Calm -- 30.22 in1023.4 mb - 0.00 in0.0 mm 0.00 in0.0 mm
06:15 AM 69.7°F20.9°C 67.9°F19.9°C 94% Calm Calm -- 30.22 in1023.4 mb - 0.00 in0.0 mm 0.00 in0.0 mm
06:30 AM 69.9°F21.1°C 68.1°F20.1°C 94% Calm Calm -- 30.22 in1023.4 mb - 0.00 in0.0 mm 0.00 in0.0 mm
06:45 AM 70.0°F21.1°C 68.2°F20.1°C 94% Calm Calm -- 30.22 in1023.4 mb - 0.00 in0.0 mm 0.00 in0.0 mm
07:00 AM 70.3°F21.3°C 68.5°F20.3°C 94% Calm Calm -- 30.23 in1023.7 mb - 0.00 in0.0 mm 0.00 in0.0 mm
07:15 AM 70.9°F21.6°C 68.8°F20.4°C 93% Calm Calm -- 30.23 in1023.7 mb - 0.00 in0.0 mm 0.00 in0.0 mm
07:30 AM 71.8°F22.1°C 69.7°F20.9°C 93% Calm Calm -- 30.24 in1024.0 mb - 0.00 in0.0 mm 0.00 in0.0 mm
07:45 AM 73.1°F22.8°C 70.6°F21.4°C 92% Calm Calm -- 30.25 in1024.4 mb - 0.00 in0.0 mm 0.00 in0.0 mm
08:00 AM 74.5°F23.6°C 71.7°F22.1°C 91% Calm Calm 1.2 mph1.9 kmh 30.25 in1024.4 mb - 0.00 in0.0 mm 0.00 in0.0 mm
08:15 AM 76.0°F24.4°C 72.5°F22.5°C 89% Calm Calm -- 30.26 in1024.7 mb - 0.00 in0.0 mm 0.00 in0.0 mm
08:30 AM 76.9°F24.9°C 72.7°F22.6°C 87% Calm Calm -- 30.26 in1024.7 mb - 0.00 in0.0 mm 0.00 in0.0 mm
08:45 AM 77.3°F25.2°C 73.1°F22.8°C 87% Calm Calm 1.2 mph1.9 kmh 30.27 in1025.1 mb - 0.00 in0.0 mm 0.00 in0.0 mm
09:00 AM 78.4°F25.8°C 73.9°F23.3°C 86% Calm Calm -- 30.26 in1024.7 mb - 0.00 in0.0 mm 0.00 in0.0 mm
09:15 AM 79.2°F26.2°C 74.3°F23.5°C 85% 1.2 mph N1.9 kmh N 1.2 mph1.9 kmh 30.26 in1024.7 mb - 0.00 in0.0 mm 0.00 in0.0 mm
09:30 AM 80.1°F26.7°C 74.5°F23.6°C 83% Calm Calm 1.2 mph1.9 kmh 30.26 in1024.7 mb - 0.00 in0.0 mm 0.00 in0.0 mm
09:45 AM 81.1°F27.3°C 75.1°F23.9°C 82% Calm Calm 2.3 mph3.7 kmh 30.26 in1024.7 mb - 0.00 in0.0 mm 0.00 in0.0 mm
10:00 AM 81.9°F27.7°C 75.5°F24.2°C 81% Calm Calm 1.2 mph1.9 kmh 30.26 in1024.7 mb - 0.00 in0.0 mm 0.00 in0.0 mm
10:15 AM 82.8°F28.2°C 75.2°F24.0°C 78% 1.2 mph N1.9 kmh N 1.2 mph1.9 kmh 30.26 in1024.7 mb - 0.00 in0.0 mm 0.00 in0.0 mm
10:30 AM 83.6°F28.7°C 75.6°F24.2°C 77% 1.2 mph N1.9 kmh N 3.5 mph5.6 kmh 30.26 in1024.7 mb - 0.00 in0.0 mm 0.00 in0.0 mm
10:45 AM 84.5°F29.2°C 75.7°F24.3°C 75% Calm Calm 1.2 mph1.9 kmh 30.26 in1024.7 mb - 0.00 in0.0 mm 0.00 in0.0 mm
11:00 AM 85.2°F29.6°C 76.4°F24.7°C 75% 1.2 mph N1.9 kmh N 3.5 mph5.6 kmh 30.26 in1024.7 mb - 0.00 in0.0 mm 0.00 in0.0 mm
11:15 AM 85.6°F29.8°C 75.9°F24.4°C 73% 1.2 mph N1.9 kmh N 3.5 mph5.6 kmh 30.25 in1024.4 mb - 0.00 in0.0 mm 0.00 in0.0 mm
11:30 AM 85.9°F29.9°C 76.2°F24.6°C 73% Calm Calm -- 30.25 in1024.4 mb - 0.00 in0.0 mm 0.00 in0.0 mm
11:45 AM 87.0°F30.6°C 76.4°F24.7°C 71% Calm Calm 2.3 mph3.7 kmh 30.24 in1024.0 mb - 0.00 in0.0 mm 0.00 in0.0 mm
12:00 PM 86.5°F30.3°C 76.4°F24.7°C 72% 1.2 mph N1.9 kmh N 2.3 mph3.7 kmh 30.24 in1024.0 mb - 0.00 in0.0 mm 0.00 in0.0 mm
12:15 PM 87.7°F30.9°C 76.3°F24.6°C 69% Calm Calm -- 30.24 in1024.0 mb - 0.00 in0.0 mm 0.00 in0.0 mm
12:30 PM 88.1°F31.2°C 76.2°F24.6°C 68% 1.2 mph N1.9 kmh N 1.2 mph1.9 kmh 30.24 in1024.0 mb - 0.00 in0.0 mm 0.00 in0.0 mm
12:45 PM 88.1°F31.2°C 76.2°F24.6°C 68% Calm Calm 2.3 mph3.7 kmh 30.24 in1024.0 mb - 0.00 in0.0 mm 0.00 in0.0 mm
01:00 PM 87.5°F30.8°C 77.3°F25.2°C 72% Calm Calm 1.2 mph1.9 kmh 30.24 in1024.0 mb - 0.00 in0.0 mm 0.00 in0.0 mm
01:15 PM 87.5°F30.8°C 77.3°F25.2°C 72% 1.2 mph N1.9 kmh N 2.3 mph3.7 kmh 30.23 in1023.7 mb - 0.00 in0.0 mm 0.00 in0.0 mm
01:30 PM 88.0°F31.1°C 76.5°F24.7°C 69% Calm Calm -- 30.22 in1023.4 mb - 0.00 in0.0 mm 0.00 in0.0 mm
01:45 PM 87.4°F30.8°C 76.0°F24.4°C 69% Calm Calm -- 30.22 in1023.4 mb - 0.00 in0.0 mm 0.00 in0.0 mm
02:00 PM 88.7°F31.5°C 75.9°F24.4°C 66% Calm Calm 2.3 mph3.7 kmh 30.21 in1023.0 mb - 0.00 in0.0 mm 0.00 in0.0 mm
02:15 PM 88.3°F31.3°C 75.5°F24.2°C 66% 1.2 mph N1.9 kmh N 1.2 mph1.9 kmh 30.21 in1023.0 mb - 0.00 in0.0 mm 0.00 in0.0 mm
02:30 PM 87.7°F30.9°C 75.4°F24.1°C 67% Calm Calm -- 30.21 in1023.0 mb - 0.00 in0.0 mm 0.00 in0.0 mm
02:45 PM 88.6°F31.4°C 74.9°F23.8°C 64% Calm Calm 2.3 mph3.7 kmh 30.20 in1022.7 mb - 0.00 in0.0 mm 0.00 in0.0 mm
03:00 PM 89.2°F31.8°C 74.5°F23.6°C 62% Calm Calm -- 30.20 in1022.7 mb - 0.00 in0.0 mm 0.00 in0.0 mm
03:15 PM 88.1°F31.2°C 75.3°F24.1°C 66% 1.2 mph N1.9 kmh N 1.2 mph1.9 kmh 30.20 in1022.7 mb - 0.00 in0.0 mm 0.00 in0.0 mm
03:30 PM 88.9°F31.6°C 75.2°F24.0°C 64% Calm Calm -- 30.19 in1022.4 mb - 0.00 in0.0 mm 0.00 in0.0 mm
03:45 PM 89.3°F31.8°C 75.5°F24.2°C 64% Calm Calm -- 30.18 in1022.0 mb - 0.00 in0.0 mm 0.00 in0.0 mm
04:00 PM 89.5°F31.9°C 75.7°F24.3°C 64% Calm Calm 1.2 mph1.9 kmh 30.19 in1022.4 mb - 0.00 in0.0 mm 0.00 in0.0 mm
04:15 PM 87.7°F30.9°C 71.1°F21.7°C 58% Calm Calm -- 30.19 in1022.4 mb - 0.00 in0.0 mm 0.00 in0.0 mm
04:30 PM 86.3°F30.2°C 69.3°F20.7°C 57% Calm Calm 1.2 mph1.9 kmh 30.19 in1022.4 mb - 0.00 in0.0 mm 0.00 in0.0 mm
04:45 PM 84.5°F29.2°C 70.5°F21.4°C 63% Calm Calm -- 30.19 in1022.4 mb - 0.00 in0.0 mm 0.00 in0.0 mm
05:00 PM 83.1°F28.4°C 69.7°F20.9°C 64% Calm Calm -- 30.19 in1022.4 mb - 0.00 in0.0 mm 0.00 in0.0 mm
05:15 PM 82.3°F27.9°C 68.4°F20.2°C 63% Calm Calm -- 30.19 in1022.4 mb - 0.00 in0.0 mm 0.00 in0.0 mm
05:30 PM 81.8°F27.7°C 67.5°F19.7°C 62% Calm Calm -- 30.19 in1022.4 mb - 0.00 in0.0 mm 0.00 in0.0 mm
05:45 PM 81.3°F27.4°C 67.9°F19.9°C 64% Calm Calm -- 30.19 in1022.4 mb - 0.00 in0.0 mm 0.00 in0.0 mm
06:00 PM 81.0°F27.2°C 69.4°F20.8°C 68% Calm Calm -- 30.19 in1022.4 mb - 0.00 in0.0 mm 0.00 in0.0 mm
06:15 PM 80.2°F26.8°C 67.8°F19.9°C 66% Calm Calm -- 30.19 in1022.4 mb - 0.00 in0.0 mm 0.00 in0.0 mm
06:30 PM 79.8°F26.6°C 68.7°F20.4°C 69% Calm Calm -- 30.18 in1022.0 mb - 0.00 in0.0 mm 0.00 in0.0 mm
06:45 PM 79.2°F26.2°C 67.8°F19.9°C 68% Calm Calm -- 30.19 in1022.4 mb - 0.00 in0.0 mm 0.00 in0.0 mm
07:00 PM 78.6°F25.9°C 67.6°F19.8°C 69% Calm Calm -- 30.20 in1022.7 mb - 0.00 in0.0 mm 0.00 in0.0 mm
07:15 PM 78.2°F25.7°C 67.6°F19.8°C 70% Calm Calm -- 30.20 in1022.7 mb - 0.00 in0.0 mm 0.00 in0.0 mm
07:30 PM 78.1°F25.6°C 69.1°F20.6°C 74% Calm Calm -- 30.20 in1022.7 mb - 0.00 in0.0 mm 0.00 in0.0 mm
07:45 PM 77.6°F25.3°C 68.3°F20.2°C 73% Calm Calm -- 30.21 in1023.0 mb - 0.00 in0.0 mm 0.00 in0.0 mm
08:00 PM 77.2°F25.1°C 68.7°F20.4°C 75% Calm Calm -- 30.21 in1023.0 mb - 0.00 in0.0 mm 0.00 in0.0 mm
08:15 PM 77.1°F25.1°C 68.6°F20.3°C 75% Calm Calm -- 30.21 in1023.0 mb - 0.00 in0.0 mm 0.00 in0.0 mm
08:30 PM 76.8°F24.9°C 68.7°F20.4°C 76% Calm Calm -- 30.22 in1023.4 mb - 0.00 in0.0 mm 0.00 in0.0 mm
08:45 PM 76.3°F24.6°C 68.9°F20.5°C 78% Calm Calm -- 30.23 in1023.7 mb - 0.00 in0.0 mm 0.00 in0.0 mm
09:00 PM 76.1°F24.5°C 69.1°F20.6°C 79% Calm Calm -- 30.23 in1023.7 mb - 0.00 in0.0 mm 0.00 in0.0 mm
09:15 PM 75.8°F24.3°C 68.8°F20.4°C 79% Calm Calm -- 30.24 in1024.0 mb - 0.00 in0.0 mm 0.00 in0.0 mm
09:30 PM 75.2°F24.0°C 69.0°F20.6°C 81% Calm Calm -- 30.24 in1024.0 mb - 0.00 in0.0 mm 0.00 in0.0 mm
09:45 PM 75.0°F23.9°C 69.1°F20.6°C 82% Calm Calm -- 30.24 in1024.0 mb - 0.00 in0.0 mm 0.00 in0.0 mm
10:00 PM 74.9°F23.8°C 69.0°F20.6°C 82% Calm Calm -- 30.24 in1024.0 mb - 0.00 in0.0 mm 0.00 in0.0 mm
10:15 PM 74.7°F23.7°C 69.2°F20.7°C 83% Calm Calm -- 30.25 in1024.4 mb - 0.00 in0.0 mm 0.00 in0.0 mm
10:30 PM 74.6°F23.7°C 69.4°F20.8°C 84% Calm Calm -- 30.25 in1024.4 mb - 0.00 in0.0 mm 0.00 in0.0 mm
10:45 PM 74.2°F23.4°C 69.1°F20.6°C 84% Calm Calm -- 30.25 in1024.4 mb - 0.00 in0.0 mm 0.00 in0.0 mm
11:00 PM 74.2°F23.4°C 69.1°F20.6°C 84% Calm Calm -- 30.25 in1024.4 mb - 0.00 in0.0 mm 0.00 in0.0 mm
11:15 PM 73.9°F23.3°C 69.4°F20.8°C 86% Calm Calm -- 30.25 in1024.4 mb - 0.00 in0.0 mm 0.00 in0.0 mm
11:30 PM 73.3°F22.9°C 68.5°F20.3°C 85% Calm Calm -- 30.24 in1024.0 mb - 0.00 in0.0 mm 0.00 in0.0 mm
11:45 PM 73.1°F22.8°C 68.7°F20.4°C 86% Calm Calm -- 30.24 in1024.0 mb - 0.00 in0.0 mm 0.00 in0.0 mm